Time;durP1;ratioP1;P1;durP2;ratioP2;P2;SDS_P1;SDS_P2;PMS_P1;PMS_P2;Temp;Humidity;BMP_temperature;BMP_pressure;BME280_temperature;BME280_humidity;BME280_pressure;Samples;Min_cycle;Max_cycle;Signal;HPM_P1;HPM_P2
2020/12/22 00:01:20;;;;;;;1.85;0.90;;;21.30;51.20;;;;;;5030881;28;20026;-44
2020/12/22 00:03:46;;;;;;;1.08;0.80;;;21.30;51.20;;;;;;5030254;28;20038;-55
2020/12/22 00:06:13;;;;;;;1.10;0.80;;;21.30;51.10;;;;;;5030814;28;20114;-47
2020/12/22 00:08:39;;;;;;;1.50;1.10;;;21.30;51.20;;;;;;5030986;28;20075;-47
2020/12/22 00:11:05;;;;;;;2.03;0.93;;;21.30;51.20;;;;;;5029586;28;20025;-45
2020/12/22 00:13:31;;;;;;;1.30;0.90;;;21.20;51.10;;;;;;5030789;28;20108;-40
2020/12/22 00:15:57;;;;;;;1.00;0.73;;;21.30;51.20;;;;;;5026768;28;20113;-45
2020/12/22 00:18:22;;;;;;;1.67;0.95;;;21.30;51.20;;;;;;5029444;28;20041;-43
2020/12/22 00:20:49;;;;;;;1.00;0.90;;;21.20;51.20;;;;;;5029430;28;20529;-53
2020/12/22 00:23:15;;;;;;;1.15;0.77;;;21.20;51.10;;;;;;5029401;28;20611;-45
2020/12/22 00:25:42;;;;;;;1.65;0.90;;;21.20;51.20;;;;;;5028656;28;20029;-45
2020/12/22 00:28:08;;;;;;;1.77;0.90;;;21.20;51.20;;;;;;5029008;28;20029;-44
2020/12/22 00:30:33;;;;;;;1.45;0.95;;;21.20;51.30;;;;;;5029785;28;20367;-48
2020/12/22 00:32:59;;;;;;;1.50;0.95;;;21.20;51.20;;;;;;5028701;28;20033;-40
2020/12/22 00:35:24;;;;;;;1.20;0.70;;;21.20;51.30;;;;;;5029506;28;20554;-40
2020/12/22 00:37:50;;;;;;;0.82;0.80;;;21.20;51.30;;;;;;5027427;28;20503;-44
2020/12/22 00:40:16;;;;;;;1.73;1.05;;;21.20;51.40;;;;;;5053957;28;20048;-44
2020/12/22 00:42:41;;;;;;;2.20;0.88;;;21.20;51.40;;;;;;5029601;28;20022;-42
2020/12/22 00:45:07;;;;;;;1.77;0.77;;;21.20;51.30;;;;;;5028322;28;20025;-46
2020/12/22 00:47:33;;;;;;;0.93;0.70;;;21.20;51.40;;;;;;5029471;28;20109;-45
2020/12/22 00:49:58;;;;;;;0.98;0.60;;;21.20;51.40;;;;;;5028771;28;20033;-43
2020/12/22 00:52:24;;;;;;;1.20;0.80;;;21.20;51.30;;;;;;5029208;28;20359;-44
2020/12/22 00:54:50;;;;;;;2.15;0.63;;;21.20;51.30;;;;;;5028557;28;20056;-42
2020/12/22 00:57:16;;;;;;;1.20;0.75;;;21.20;51.50;;;;;;5029042;28;20056;-48
2020/12/22 00:59:41;;;;;;;0.90;0.70;;;21.20;51.30;;;;;;5029213;28;20038;-43
2020/12/22 01:02:07;;;;;;;1.13;0.80;;;21.20;51.40;;;;;;5030333;28;20026;-45
2020/12/22 01:04:33;;;;;;;2.15;0.70;;;21.20;51.40;;;;;;5030719;28;20029;-42
2020/12/22 01:07:00;;;;;;;1.33;0.90;;;21.10;51.20;;;;;;5030270;28;20486;-44
2020/12/22 01:09:25;;;;;;;0.95;0.80;;;21.10;51.40;;;;;;5034626;28;20128;-47
2020/12/22 01:11:51;;;;;;;0.95;0.50;;;21.10;51.30;;;;;;5034670;28;20486;-45
2020/12/22 01:14:17;;;;;;;1.77;0.80;;;21.10;51.40;;;;;;5035172;28;20327;-46
2020/12/22 01:16:43;;;;;;;1.05;0.57;;;21.10;51.50;;;;;;5035303;28;20418;-47
2020/12/22 01:19:08;;;;;;;1.20;0.70;;;21.10;51.30;;;;;;5033700;28;20367;-52
2020/12/22 01:21:34;;;;;;;0.70;0.60;;;21.10;51.40;;;;;;5034087;28;20035;-44
2020/12/22 01:24:01;;;;;;;1.23;0.70;;;21.10;51.40;;;;;;5034470;28;20025;-39
2020/12/22 01:26:27;;;;;;;1.20;0.73;;;21.10;51.50;;;;;;5034880;28;20034;-40
2020/12/22 01:28:54;;;;;;;0.95;0.63;;;21.10;51.40;;;;;;5033951;28;20029;-46
2020/12/22 01:31:28;;;;;;;0.73;0.60;;;21.10;51.40;;;;;;5034792;28;20029;-38
2020/12/22 01:33:55;;;;;;;1.60;0.70;;;21.10;51.30;;;;;;5025434;28;20041;-45
2020/12/22 01:36:22;;;;;;;2.20;0.70;;;21.10;51.30;;;;;;5034821;28;20049;-36
2020/12/22 01:38:48;;;;;;;1.25;0.90;;;21.10;51.40;;;;;;5033710;28;20045;-55
2020/12/22 01:41:15;;;;;;;1.10;0.60;;;21.10;51.50;;;;;;5034469;28;20022;-43
2020/12/22 01:43:41;;;;;;;1.23;0.65;;;21.10;51.30;;;;;;5033317;28;20384;-44
2020/12/22 01:46:07;;;;;;;2.53;0.90;;;21.10;51.40;;;;;;5024336;28;20611;-43
2020/12/22 01:48:34;;;;;;;1.45;0.55;;;21.10;51.40;;;;;;5034635;28;20079;-49
2020/12/22 01:51:00;;;;;;;0.50;0.50;;;21.00;51.40;;;;;;5033544;28;20036;-49
2020/12/22 01:53:26;;;;;;;0.68;0.60;;;21.10;51.40;;;;;;5034672;28;20489;-46
2020/12/22 01:55:52;;;;;;;1.35;0.60;;;21.10;51.40;;;;;;5033353;28;20029;-52
2020/12/22 01:58:18;;;;;;;1.00;0.68;;;21.10;51.50;;;;;;5034024;28;20022;-49
2020/12/22 02:00:43;;;;;;;2.17;0.70;;;21.10;51.40;;;;;;5034524;28;20082;-44
2020/12/22 02:03:10;;;;;;;0.70;0.50;;;21.10;51.40;;;;;;5033679;28;20033;-41
2020/12/22 02:05:39;;;;;;;1.67;0.68;;;21.00;51.40;;;;;;5034054;28;20120;-49
2020/12/22 02:08:05;;;;;;;0.80;0.60;;;21.00;51.40;;;;;;5033082;28;20128;-37
2020/12/22 02:10:32;;;;;;;0.73;0.52;;;21.10;51.60;;;;;;5033567;28;20025;-45
2020/12/22 02:12:59;;;;;;;1.02;0.60;;;21.10;51.30;;;;;;5025014;28;20033;-45
2020/12/22 02:15:26;;;;;;;0.70;0.50;;;21.10;51.40;;;;;;5033781;28;20155;-48
2020/12/22 02:17:52;;;;;;;1.98;0.50;;;21.00;51.40;;;;;;5033067;28;20415;-44
2020/12/22 02:20:18;;;;;;;1.13;0.60;;;21.10;51.30;;;;;;5025374;28;20130;-46
2020/12/22 02:22:44;;;;;;;0.95;0.50;;;21.00;51.30;;;;;;5033196;28;20048;-44
2020/12/22 02:25:18;;;;;;;0.77;0.55;;;21.00;51.50;;;;;;5033098;28;20580;-42
2020/12/22 02:27:44;;;;;;;2.85;0.52;;;21.00;51.30;;;;;;5033949;28;20033;-38
2020/12/22 02:30:10;;;;;;;1.15;0.63;;;21.00;51.30;;;;;;5032763;28;20022;-51
2020/12/22 02:32:36;;;;;;;1.13;0.70;;;21.00;51.40;;;;;;5033222;28;20037;-44
2020/12/22 02:35:04;;;;;;;0.80;0.60;;;21.00;51.30;;;;;;5032875;28;20044;-43
2020/12/22 02:37:30;;;;;;;0.50;0.43;;;21.00;51.30;;;;;;5048695;28;20056;-49
2020/12/22 02:39:55;;;;;;;0.95;0.50;;;21.00;51.40;;;;;;5033218;28;20029;-42
2020/12/22 02:42:22;;;;;;;0.60;0.57;;;21.00;51.30;;;;;;5033445;28;20030;-43
2020/12/22 02:44:48;;;;;;;0.50;0.50;;;21.00;51.30;;;;;;5033258;28;20087;-56
2020/12/22 02:47:15;;;;;;;0.60;0.50;;;21.00;51.40;;;;;;5032827;28;20053;-44
2020/12/22 02:49:42;;;;;;;1.05;0.43;;;21.00;51.30;;;;;;5033550;28;20044;-43
2020/12/22 02:52:07;;;;;;;0.70;0.45;;;21.00;51.50;;;;;;5024163;28;20780;-39
2020/12/22 02:54:34;;;;;;;0.70;0.60;;;21.00;51.30;;;;;;5033207;28;20029;-44
2020/12/22 02:57:00;;;;;;;0.88;0.57;;;21.00;51.30;;;;;;5032195;28;20348;-43
2020/12/22 02:59:26;;;;;;;2.45;0.50;;;21.00;51.30;;;;;;5033417;28;20087;-53
2020/12/22 03:01:51;;;;;;;1.00;0.60;;;21.00;51.50;;;;;;5032156;28;20517;-56
2020/12/22 03:04:17;;;;;;;0.40;0.40;;;21.00;51.40;;;;;;5033208;28;20064;-41
2020/12/22 03:06:43;;;;;;;3.65;0.70;;;21.00;51.30;;;;;;5033214;28;20120;-47
2020/12/22 03:09:09;;;;;;;0.60;0.47;;;21.00;51.40;;;;;;5032049;28;20041;-37
2020/12/22 03:11:35;;;;;;;0.95;0.50;;;21.00;51.30;;;;;;5032685;28;20075;-45
2020/12/22 03:14:01;;;;;;;1.08;0.60;;;21.00;51.30;;;;;;5032259;28;20026;-44
2020/12/22 03:16:27;;;;;;;1.05;0.63;;;21.00;51.30;;;;;;5032973;28;20032;-44
2020/12/22 03:18:53;;;;;;;0.50;0.40;;;21.00;51.40;;;;;;5031674;28;20048;-56
2020/12/22 03:21:19;;;;;;;0.50;0.50;;;21.00;51.30;;;;;;5032020;28;20029;-35
2020/12/22 03:23:44;;;;;;;0.75;0.40;;;21.00;51.40;;;;;;5032687;28;20147;-53
2020/12/22 03:26:10;;;;;;;0.70;0.50;;;21.00;51.30;;;;;;5032028;28;20112;-40
2020/12/22 03:28:36;;;;;;;1.08;0.50;;;21.00;51.30;;;;;;5033099;28;20086;-56
2020/12/22 03:31:02;;;;;;;0.82;0.60;;;21.00;51.60;;;;;;5031342;28;20029;-43
2020/12/22 03:33:28;;;;;;;1.10;0.50;;;21.00;51.40;;;;;;5031994;28;20037;-35
2020/12/22 03:35:54;;;;;;;1.00;0.40;;;21.00;51.40;;;;;;5031394;28;20483;-48
2020/12/22 03:38:20;;;;;;;1.15;0.60;;;21.00;51.40;;;;;;5032190;28;20044;-47
2020/12/22 03:40:46;;;;;;;0.50;0.40;;;21.00;51.40;;;;;;5032591;28;20120;-36
2020/12/22 03:43:12;;;;;;;0.30;0.30;;;21.00;51.40;;;;;;5031943;28;20596;-38
2020/12/22 03:45:39;;;;;;;0.73;0.63;;;21.00;51.40;;;;;;5032097;28;20038;-49
2020/12/22 03:48:05;;;;;;;0.45;0.32;;;21.00;51.40;;;;;;5031267;28;20029;-44
2020/12/22 03:50:31;;;;;;;0.95;0.40;;;21.00;51.40;;;;;;5031807;28;20072;-39
2020/12/22 03:53:00;;;;;;;0.47;0.30;;;21.00;51.40;;;;;;5030131;28;20036;-45
2020/12/22 03:55:27;;;;;;;1.20;0.30;;;21.00;51.40;;;;;;5032100;28;20052;-47
2020/12/22 03:57:52;;;;;;;1.15;0.50;;;20.90;51.30;;;;;;5031330;28;20382;-56
2020/12/22 04:00:18;;;;;;;0.60;0.30;;;20.90;51.30;;;;;;5031358;28;20038;-38
2020/12/22 04:02:44;;;;;;;0.30;0.30;;;21.00;51.40;;;;;;5031397;28;20089;-49
2020/12/22 04:05:10;;;;;;;0.77;0.55;;;21.00;51.40;;;;;;5030969;28;20029;-56
2020/12/22 04:07:36;;;;;;;0.55;0.30;;;21.00;51.40;;;;;;5031546;28;20029;-43
2020/12/22 04:10:06;;;;;;;0.88;0.40;;;20.90;51.40;;;;;;5030829;28;20033;-53
2020/12/22 04:12:33;;;;;;;0.30;0.30;;;21.00;51.50;;;;;;5032272;28;20083;-54
2020/12/22 04:14:58;;;;;;;1.02;0.40;;;21.00;51.50;;;;;;5030889;28;20037;-45
2020/12/22 04:17:24;;;;;;;0.60;0.30;;;21.00;51.50;;;;;;5031306;28;20030;-45
2020/12/22 04:19:50;;;;;;;0.95;0.40;;;21.00;51.50;;;;;;5046627;28;20056;-41
2020/12/22 04:22:15;;;;;;;1.05;0.68;;;20.90;51.50;;;;;;5031186;28;20061;-44
2020/12/22 04:24:41;;;;;;;1.65;0.40;;;20.90;51.50;;;;;;5031281;28;20099;-45
2020/12/22 04:27:07;;;;;;;2.13;0.52;;;20.90;51.50;;;;;;5030947;28;20147;-39
2020/12/22 04:29:32;;;;;;;1.20;0.40;;;21.00;51.60;;;;;;5031294;28;20426;-47
2020/12/22 04:31:58;;;;;;;1.65;0.30;;;20.90;51.50;;;;;;5030119;28;20390;-50
2020/12/22 04:34:25;;;;;;;2.05;0.40;;;20.90;51.60;;;;;;5030130;28;20363;-47
2020/12/22 04:36:51;;;;;;;0.90;0.55;;;20.90;51.50;;;;;;5031676;28;20136;-38
2020/12/22 04:39:17;;;;;;;0.77;0.65;;;20.90;52.20;;;;;;5030494;28;20052;-51
2020/12/22 04:41:47;;;;;;;1.42;0.52;;;20.90;51.60;;;;;;5031520;28;20021;-55
2020/12/22 04:44:14;;;;;;;0.65;0.50;;;20.90;51.60;;;;;;5030291;28;20029;-40
2020/12/22 04:46:41;;;;;;;1.05;0.20;;;20.90;51.60;;;;;;5031013;28;20510;-39
2020/12/22 04:49:09;;;;;;;1.63;0.47;;;20.90;51.60;;;;;;5030648;28;20394;-41
2020/12/22 04:51:37;;;;;;;0.77;0.50;;;20.90;51.60;;;;;;5031272;28;20022;-45
2020/12/22 04:54:06;;;;;;;1.20;0.50;;;20.90;51.60;;;;;;5029231;28;20037;-49
2020/12/22 04:56:33;;;;;;;0.95;0.40;;;20.90;51.60;;;;;;5030954;28;20021;-45
2020/12/22 04:58:58;;;;;;;1.48;0.30;;;20.90;51.60;;;;;;5030553;28;20111;-44
2020/12/22 05:01:24;;;;;;;1.85;0.40;;;20.90;51.70;;;;;;5030704;28;20076;-37
2020/12/22 05:03:50;;;;;;;0.85;0.40;;;20.90;51.60;;;;;;5030500;28;20057;-44
2020/12/22 05:06:16;;;;;;;3.38;0.55;;;20.90;51.60;;;;;;5029257;28;20025;-45
2020/12/22 05:08:41;;;;;;;0.90;0.35;;;20.90;51.60;;;;;;5029483;28;20037;-48
2020/12/22 05:11:15;;;;;;;0.32;0.28;;;20.90;51.60;;;;;;5028907;28;20026;-45
2020/12/22 05:13:41;;;;;;;1.13;0.35;;;20.90;51.70;;;;;;5030299;28;20021;-44
2020/12/22 05:16:09;;;;;;;1.00;0.43;;;20.90;51.60;;;;;;5029221;28;20032;-46
2020/12/22 05:18:35;;;;;;;0.65;0.40;;;20.90;51.70;;;;;;5029298;28;20046;-49
2020/12/22 05:21:01;;;;;;;0.85;0.50;;;20.90;51.70;;;;;;5029090;28;20057;-46
2020/12/22 05:23:27;;;;;;;0.65;0.57;;;20.90;51.70;;;;;;5030028;28;20113;-47
2020/12/22 05:25:53;;;;;;;1.05;0.40;;;20.90;51.70;;;;;;5029423;28;20048;-55
2020/12/22 05:28:20;;;;;;;3.33;0.50;;;20.90;51.70;;;;;;5028983;28;20033;-39
2020/12/22 05:30:48;;;;;;;0.45;0.30;;;20.90;51.70;;;;;;5027789;28;20037;-45
2020/12/22 05:33:14;;;;;;;0.80;0.35;;;20.90;51.70;;;;;;5028814;28;20714;-46
2020/12/22 05:35:42;;;;;;;0.90;0.55;;;20.90;51.70;;;;;;5029669;28;20050;-51
2020/12/22 05:38:08;;;;;;;1.05;0.40;;;20.90;51.70;;;;;;5028910;28;20041;-44
2020/12/22 05:40:37;;;;;;;2.35;0.38;;;20.90;51.70;;;;;;5029444;28;20022;-45
2020/12/22 05:43:04;;;;;;;1.00;0.30;;;20.90;51.70;;;;;;5028831;28;20121;-46
2020/12/22 05:45:34;;;;;;;0.60;0.38;;;20.90;51.70;;;;;;5029842;28;20088;-48
2020/12/22 05:48:00;;;;;;;2.17;0.45;;;20.90;51.70;;;;;;5028457;28;20033;-51
2020/12/22 05:50:27;;;;;;;1.23;0.40;;;20.90;51.70;;;;;;5029428;28;20037;-40
2020/12/22 05:52:55;;;;;;;0.30;0.30;;;20.90;51.70;;;;;;5029611;28;20463;-48
2020/12/22 05:55:31;;;;;;;0.50;0.30;;;20.90;51.70;;;;;;5031720;28;20049;-41
2020/12/22 05:58:11;;;;;;;1.25;0.20;;;20.90;51.70;;;;;;5025253;28;20041;-54
2020/12/22 06:00:38;;;;;;;1.00;0.40;;;20.90;51.70;;;;;;5034185;28;20112;-54
2020/12/22 06:03:07;;;;;;;1.30;0.40;;;20.90;51.80;;;;;;5032048;28;20051;-40
2020/12/22 06:05:40;;;;;;;0.60;0.30;;;20.90;51.80;;;;;;5033769;28;20040;-55
2020/12/22 06:08:10;;;;;;;1.75;0.40;;;20.90;51.70;;;;;;5029598;28;20033;-45
2020/12/22 06:10:37;;;;;;;1.13;0.32;;;20.90;51.70;;;;;;5033468;28;20041;-40
2020/12/22 06:13:04;;;;;;;1.98;0.45;;;20.90;51.70;;;;;;5033242;28;20090;-46
2020/12/22 06:15:31;;;;;;;0.20;0.20;;;20.90;51.80;;;;;;5033971;28;20025;-46
2020/12/22 06:17:56;;;;;;;1.05;0.50;;;20.90;51.80;;;;;;5033122;28;20033;-57
2020/12/22 06:20:24;;;;;;;0.73;0.40;;;20.90;51.70;;;;;;5033556;28;20041;-41
2020/12/22 06:22:50;;;;;;;0.20;0.20;;;20.90;51.80;;;;;;5034004;28;20108;-47
2020/12/22 06:25:22;;;;;;;0.85;0.40;;;20.90;51.80;;;;;;5033228;28;20096;-40
2020/12/22 06:27:48;;;;;;;4.38;0.50;;;20.90;51.80;;;;;;5026352;28;20022;-36
2020/12/22 06:30:17;;;;;;;0.47;0.32;;;20.80;51.70;;;;;;5032784;28;20109;-44
2020/12/22 06:32:43;;;;;;;3.28;0.45;;;20.90;51.80;;;;;;5032277;28;20475;-44
2020/12/22 06:35:30;;;;;;;0.30;0.30;;;20.80;51.70;;;;;;5032554;28;20056;-40
2020/12/22 06:37:57;;;;;;;1.52;0.50;;;20.80;51.70;;;;;;5033259;28;20038;-53
2020/12/22 06:40:52;;;;;;;0.45;0.28;;;20.80;51.80;;;;;;5033195;28;20043;-48
2020/12/22 06:43:40;;;;;;;3.22;0.50;;;20.90;51.80;;;;;;5032969;28;20029;-44
2020/12/22 06:46:29;;;;;;;2.20;0.60;;;20.80;52.40;;;;;;5032511;28;20501;-42
2020/12/22 06:48:55;;;;;;;0.80;0.30;;;20.90;51.80;;;;;;5032961;28;20090;-55
2020/12/22 06:51:30;;;;;;;1.17;0.40;;;20.80;51.80;;;;;;5031621;28;20421;-43
2020/12/22 06:53:56;;;;;;;0.30;0.30;;;20.80;51.80;;;;;;5033030;28;20073;-54
2020/12/22 06:56:41;;;;;;;0.68;0.32;;;20.80;51.80;;;;;;5033207;28;20060;-41
2020/12/22 06:59:12;;;;;;;1.38;0.85;;;20.80;51.80;;;;;;5032698;28;20037;-41
2020/12/22 07:01:44;;;;;;;0.50;0.30;;;20.80;51.80;;;;;;5032619;28;20032;-42
2020/12/22 07:04:16;;;;;;;1.15;0.47;;;20.90;51.80;;;;;;5032645;28;20083;-45
2020/12/22 07:06:50;;;;;;;1.70;0.35;;;20.90;51.80;;;;;;5032653;28;20030;-44
2020/12/22 07:09:23;;;;;;;0.85;0.30;;;20.80;51.80;;;;;;5032362;28;20591;-41
2020/12/22 07:11:51;;;;;;;0.82;0.40;;;20.80;51.80;;;;;;5027466;28;20356;-45
2020/12/22 07:14:19;;;;;;;0.68;0.50;;;20.80;51.80;;;;;;5032269;28;20045;-39
2020/12/22 07:16:52;;;;;;;1.38;0.30;;;20.80;51.80;;;;;;5033168;28;20037;-39
2020/12/22 07:19:31;;;;;;;0.43;0.35;;;20.80;51.80;;;;;;5031651;28;20037;-52
2020/12/22 07:21:58;;;;;;;0.50;0.20;;;20.80;51.80;;;;;;5032101;28;20065;-56
2020/12/22 07:24:29;;;;;;;0.80;0.30;;;20.80;51.80;;;;;;5032634;28;20025;-44
2020/12/22 07:26:55;;;;;;;0.98;0.35;;;20.80;52.50;;;;;;5032696;28;20371;-38
2020/12/22 07:29:22;;;;;;;0.93;0.30;;;20.80;51.80;;;;;;5032168;28;20033;-44
2020/12/22 07:31:48;;;;;;;0.60;0.30;;;20.80;51.80;;;;;;5027176;28;20025;-42
2020/12/22 07:34:14;;;;;;;0.77;0.30;;;20.80;51.80;;;;;;5031135;28;20671;-45
2020/12/22 07:36:41;;;;;;;0.77;0.40;;;20.80;51.90;;;;;;5031999;28;20073;-45
2020/12/22 07:39:22;;;;;;;0.32;0.20;;;20.80;51.80;;;;;;5029781;28;20041;-44
2020/12/22 07:41:49;;;;;;;1.40;0.30;;;20.80;51.80;;;;;;5032377;28;20076;-42
2020/12/22 07:44:21;;;;;;;1.00;0.40;;;20.80;51.80;;;;;;5031458;28;20661;-48
2020/12/22 07:46:57;;;;;;;2.35;0.52;;;20.80;51.90;;;;;;5032072;28;20037;-43
2020/12/22 07:49:23;;;;;;;2.53;1.33;;;20.80;52.50;;;;;;5032113;28;20034;-43
2020/12/22 07:51:49;;;;;;;0.88;0.50;;;20.80;51.90;;;;;;5030969;28;20033;-42
2020/12/22 07:54:16;;;;;;;4.50;0.85;;;20.80;51.80;;;;;;5031641;28;20083;-41
2020/12/22 07:56:45;;;;;;;2.63;0.50;;;20.90;52.10;;;;;;5032039;28;20463;-54
2020/12/22 07:59:13;;;;;;;1.30;0.38;;;20.90;52.10;;;;;;5027558;28;20597;-45
2020/12/22 08:01:41;;;;;;;3.03;0.50;;;20.90;51.90;;;;;;5031785;28;20072;-51
2020/12/22 08:04:27;;;;;;;1.38;0.32;;;20.90;52.10;;;;;;5029096;28;20037;-35
2020/12/22 08:07:06;;;;;;;2.83;0.45;;;20.90;52.00;;;;;;5032319;28;20041;-34
2020/12/22 08:09:37;;;;;;;1.65;0.40;;;20.90;52.00;;;;;;5030212;28;20040;-36
2020/12/22 08:12:05;;;;;;;1.40;0.63;;;20.90;52.10;;;;;;5031215;28;20029;-50
2020/12/22 08:14:38;;;;;;;3.53;0.50;;;20.90;52.20;;;;;;5031783;28;20040;-32
2020/12/22 08:17:08;;;;;;;5.03;0.40;;;21.00;52.50;;;;;;5030712;28;20429;-41
2020/12/22 08:19:39;;;;;;;3.35;0.40;;;21.00;52.50;;;;;;5031154;28;20033;-37
2020/12/22 08:22:05;;;;;;;1.20;0.60;;;21.00;52.60;;;;;;5030698;28;20029;-40
2020/12/22 08:24:34;;;;;;;2.85;0.40;;;21.00;52.90;;;;;;5031969;28;20084;-33
2020/12/22 08:27:00;;;;;;;2.78;0.43;;;21.00;52.80;;;;;;5031327;28;20110;-53
2020/12/22 08:29:28;;;;;;;0.65;0.30;;;21.00;52.80;;;;;;5031726;28;20037;-41
2020/12/22 08:31:56;;;;;;;1.63;0.50;;;21.10;53.00;;;;;;5029252;28;20079;-34
2020/12/22 08:34:21;;;;;;;1.50;0.38;;;21.10;53.00;;;;;;5032236;28;20104;-47
2020/12/22 08:36:48;;;;;;;2.40;0.30;;;21.00;52.90;;;;;;5031900;28;20133;-45
2020/12/22 08:39:27;;;;;;;1.63;0.40;;;21.10;53.00;;;;;;5045476;28;20125;-41
2020/12/22 08:41:55;;;;;;;1.88;0.80;;;21.10;53.60;;;;;;5031375;28;20056;-50
2020/12/22 08:44:22;;;;;;;2.20;0.40;;;21.10;53.00;;;;;;5030420;28;20033;-39
2020/12/22 08:46:48;;;;;;;1.02;0.30;;;21.10;52.90;;;;;;5031729;28;20021;-38
2020/12/22 08:49:24;;;;;;;0.57;0.30;;;21.10;53.00;;;;;;5029475;28;20087;-38
2020/12/22 08:51:50;;;;;;;2.90;0.40;;;21.10;52.90;;;;;;5031561;28;20033;-42
2020/12/22 08:54:16;;;;;;;2.17;0.28;;;21.10;53.00;;;;;;5029165;28;20030;-40
2020/12/22 08:56:42;;;;;;;1.95;0.40;;;21.10;53.00;;;;;;5031045;28;20364;-38
2020/12/22 08:59:10;;;;;;;2.90;0.25;;;21.10;52.70;;;;;;5030369;28;20076;-53
2020/12/22 09:01:46;;;;;;;0.63;0.30;;;20.90;52.50;;;;;;5031105;28;20025;-47
2020/12/22 09:04:13;;;;;;;2.40;0.38;;;20.90;52.40;;;;;;5030215;28;20045;-42
2020/12/22 09:06:46;;;;;;;2.55;0.30;;;20.90;52.30;;;;;;5031089;28;20463;-36
2020/12/22 09:09:17;;;;;;;0.40;0.30;;;20.90;52.30;;;;;;5032795;28;20037;-50
2020/12/22 09:11:45;;;;;;;0.10;0.10;;;20.90;52.20;;;;;;5031171;28;20108;-42
2020/12/22 09:14:14;;;;;;;0.68;0.30;;;20.90;52.30;;;;;;5029915;28;20072;-44
2020/12/22 09:16:53;;;;;;;4.72;0.35;;;21.00;52.40;;;;;;5031161;28;20109;-46
2020/12/22 09:19:20;;;;;;;0.38;0.25;;;21.00;52.30;;;;;;5029920;28;20065;-46
2020/12/22 09:21:46;;;;;;;2.67;0.30;;;21.10;52.30;;;;;;5028883;28;20051;-46
2020/12/22 09:24:16;;;;;;;1.80;0.20;;;21.10;52.10;;;;;;5025162;28;20032;-46
2020/12/22 09:27:15;;;;;;;2.40;0.30;;;21.20;52.30;;;;;;5029001;28;20057;-49
2020/12/22 09:29:42;;;;;;;1.65;0.40;;;21.20;52.30;;;;;;5028133;28;20498;-49
2020/12/22 09:32:10;;;;;;;2.67;0.10;;;21.20;52.10;;;;;;5030529;28;20028;-46
2020/12/22 09:34:37;;;;;;;1.00;0.28;;;21.20;52.10;;;;;;5032878;28;20171;-46
2020/12/22 09:37:08;;;;;;;2.63;0.30;;;21.20;51.90;;;;;;5032768;28;20383;-58
2020/12/22 09:39:35;;;;;;;1.90;0.10;;;21.20;51.80;;;;;;5033310;28;20033;-46
2020/12/22 09:42:01;;;;;;;4.60;0.20;;;21.30;52.20;;;;;;5032908;28;20041;-48
2020/12/22 09:44:27;;;;;;;3.22;0.20;;;21.20;52.10;;;;;;5031741;28;20044;-56
2020/12/22 09:46:55;;;;;;;1.92;0.20;;;21.30;52.10;;;;;;5032567;28;20025;-47
2020/12/22 09:49:23;;;;;;;0.45;0.40;;;21.30;52.20;;;;;;5031809;28;20029;-49
2020/12/22 09:51:49;;;;;;;3.30;0.30;;;21.30;52.10;;;;;;5033025;28;20037;-46
2020/12/22 09:54:15;;;;;;;0.70;0.20;;;21.30;52.00;;;;;;5031354;28;20470;-56
2020/12/22 09:56:41;;;;;;;0.20;0.20;;;21.30;51.90;;;;;;5030908;28;20038;-48
2020/12/22 09:59:06;;;;;;;1.67;0.20;;;21.30;52.20;;;;;;5031602;28;20049;-58
2020/12/22 10:01:32;;;;;;;3.78;0.30;;;21.30;52.10;;;;;;5030003;28;20453;-47
2020/12/22 10:03:59;;;;;;;1.45;0.15;;;21.40;52.10;;;;;;5032526;28;20033;-47
2020/12/22 10:06:26;;;;;;;0.47;0.10;;;21.40;52.00;;;;;;5031481;28;20037;-49
2020/12/22 10:08:53;;;;;;;0.25;0.20;;;21.40;52.20;;;;;;5032990;28;20328;-54
2020/12/22 10:11:20;;;;;;;1.77;0.30;;;21.40;52.20;;;;;;5033105;28;20053;-47
2020/12/22 10:13:46;;;;;;;0.20;0.20;;;21.40;52.40;;;;;;5034175;28;20213;-46
2020/12/22 10:16:14;;;;;;;1.67;0.28;;;21.40;52.00;;;;;;5032676;28;20026;-39
2020/12/22 10:18:40;;;;;;;0.70;0.20;;;21.40;52.40;;;;;;5034177;28;20032;-49
2020/12/22 10:21:10;;;;;;;3.30;0.20;;;21.50;53.00;;;;;;5033528;28;20045;-58
2020/12/22 10:23:37;;;;;;;1.00;0.28;;;21.60;52.50;;;;;;5034034;28;20483;-41
2020/12/22 10:26:21;;;;;;;1.25;0.38;;;21.60;52.30;;;;;;5033569;28;20381;-58
2020/12/22 10:28:48;;;;;;;4.38;0.30;;;21.60;52.60;;;;;;5049569;28;20052;-40
2020/12/22 10:31:17;;;;;;;5.22;0.35;;;21.60;53.00;;;;;;5032444;28;20021;-50
2020/12/22 10:33:44;;;;;;;0.73;0.28;;;21.60;53.00;;;;;;5034075;28;20424;-46
2020/12/22 10:36:13;;;;;;;3.55;0.40;;;21.70;52.80;;;;;;5033285;28;20129;-39
2020/12/22 10:38:39;;;;;;;6.20;0.60;;;21.80;52.90;;;;;;5033199;28;20025;-51
2020/12/22 10:41:05;;;;;;;7.65;1.50;;;21.80;52.90;;;;;;5032958;28;20026;-57
2020/12/22 10:43:31;;;;;;;8.80;1.38;;;21.80;53.30;;;;;;5033240;28;20021;-46
2020/12/22 10:45:57;;;;;;;6.72;1.23;;;21.90;53.30;;;;;;5028755;28;20041;-55
2020/12/22 10:48:23;;;;;;;5.43;1.33;;;21.80;53.30;;;;;;5032324;28;20029;-45
2020/12/22 10:50:49;;;;;;;8.05;1.60;;;21.80;53.60;;;;;;5033307;28;20029;-46
2020/12/22 10:53:14;;;;;;;4.25;1.00;;;21.80;53.70;;;;;;5033080;28;20520;-43
2020/12/22 10:55:40;;;;;;;6.18;1.65;;;21.90;53.50;;;;;;5033065;28;20033;-42
2020/12/22 10:58:07;;;;;;;6.28;1.20;;;21.80;53.60;;;;;;5032981;28;20033;-57
2020/12/22 11:00:33;;;;;;;7.85;1.15;;;21.80;53.70;;;;;;5032490;28;20036;-37
2020/12/22 11:03:02;;;;;;;7.88;1.17;;;21.80;53.70;;;;;;5047442;28;20033;-45
2020/12/22 11:08:38;;;;;;;8.48;1.30;;;21.80;53.70;;;;;;4952402;29;20038;-45
2020/12/22 11:11:05;;;;;;;3.58;0.90;;;21.80;53.70;;;;;;4936051;29;20027;-48
2020/12/22 11:13:31;;;;;;;8.40;1.13;;;21.80;53.70;;;;;;4953068;29;20477;-52
2020/12/22 11:15:57;;;;;;;5.90;0.90;;;21.80;53.80;;;;;;4951912;29;20047;-57
2020/12/22 11:18:23;;;;;;;5.28;0.80;;;21.90;53.70;;;;;;4951686;29;20114;-43
2020/12/22 11:20:48;;;;;;;4.18;0.93;;;22.00;53.40;;;;;;4952313;29;20051;-48
2020/12/22 11:23:14;;;;;;;7.00;0.90;;;21.90;53.30;;;;;;4951747;29;20031;-44
2020/12/22 11:25:39;;;;;;;5.97;1.45;;;21.80;53.20;;;;;;4952191;29;20040;-47
2020/12/22 11:28:05;;;;;;;3.80;0.88;;;21.80;53.30;;;;;;4952398;29;20054;-45
2020/12/22 11:30:31;;;;;;;4.80;0.73;;;21.80;53.40;;;;;;4951597;29;20053;-45
2020/12/22 11:32:56;;;;;;;2.45;1.02;;;21.70;53.70;;;;;;4952420;29;20035;-42
2020/12/22 11:35:22;;;;;;;2.95;0.52;;;21.70;53.80;;;;;;4951290;29;20409;-47
2020/12/22 11:37:48;;;;;;;5.55;0.80;;;21.70;54.10;;;;;;4952275;29;20071;-46
2020/12/22 11:40:13;;;;;;;3.33;0.80;;;21.70;54.10;;;;;;5018972;28;20045;-45
2020/12/22 11:42:39;;;;;;;1.95;0.60;;;21.60;54.20;;;;;;5032002;28;20073;-43
2020/12/22 11:45:06;;;;;;;10.48;1.10;;;21.60;54.20;;;;;;5032347;28;20455;-40
2020/12/22 11:47:32;;;;;;;4.88;0.77;;;21.60;54.20;;;;;;5031962;28;20472;-44
2020/12/22 11:49:58;;;;;;;2.65;0.70;;;21.60;54.50;;;;;;5031964;28;20064;-58
2020/12/22 11:52:23;;;;;;;5.43;0.65;;;21.60;54.50;;;;;;5030594;28;20437;-50
2020/12/22 11:54:49;;;;;;;6.43;0.80;;;21.60;54.50;;;;;;5032580;28;20079;-45
2020/12/22 11:57:15;;;;;;;2.60;0.75;;;21.50;54.60;;;;;;5031424;28;20471;-44
2020/12/22 11:59:40;;;;;;;2.38;0.90;;;21.50;54.70;;;;;;5032297;28;20079;-44
2020/12/22 12:02:06;;;;;;;9.77;1.13;;;21.50;54.40;;;;;;5029651;28;20116;-44
2020/12/22 12:04:32;;;;;;;4.93;0.90;;;21.60;54.70;;;;;;5030972;28;20036;-42
2020/12/22 12:06:58;;;;;;;6.90;0.65;;;21.60;54.90;;;;;;5031683;28;20033;-42
2020/12/22 12:09:25;;;;;;;5.40;0.80;;;21.50;54.70;;;;;;5030699;28;20037;-45
2020/12/22 12:11:51;;;;;;;3.47;0.52;;;21.40;54.80;;;;;;5031300;28;20090;-45
2020/12/22 12:14:18;;;;;;;3.17;0.60;;;21.40;54.90;;;;;;5031439;28;20112;-45
2020/12/22 12:16:48;;;;;;;3.15;0.70;;;21.40;55.00;;;;;;5031754;28;20044;-43
2020/12/22 12:19:14;;;;;;;5.88;1.08;;;21.40;54.80;;;;;;5029854;28;20040;-46
2020/12/22 12:21:40;;;;;;;3.92;0.70;;;21.40;55.00;;;;;;5031977;28;20034;-48
2020/12/22 12:24:06;;;;;;;3.13;0.75;;;21.30;54.90;;;;;;5031496;28;20402;-45
2020/12/22 12:26:32;;;;;;;7.82;0.70;;;21.40;54.90;;;;;;5029735;28;20025;-54
2020/12/22 12:28:57;;;;;;;9.70;1.58;;;21.40;54.90;;;;;;5031659;28;20069;-44
2020/12/22 12:31:24;;;;;;;9.00;1.38;;;21.40;54.90;;;;;;5029001;28;20026;-46
2020/12/22 12:33:50;;;;;;;4.35;0.75;;;21.40;55.00;;;;;;5029124;28;20041;-43
2020/12/22 12:36:16;;;;;;;5.40;0.73;;;21.30;54.80;;;;;;5029887;28;20049;-44
2020/12/22 12:38:42;;;;;;;6.80;0.70;;;21.30;54.60;;;;;;5031343;28;20434;-43
2020/12/22 12:41:11;;;;;;;11.45;0.80;;;21.30;54.80;;;;;;5030949;28;20087;-54
2020/12/22 12:43:37;;;;;;;4.05;0.77;;;21.30;54.80;;;;;;5031398;28;20417;-44
2020/12/22 12:46:07;;;;;;;3.05;0.65;;;21.20;54.90;;;;;;5031611;28;20044;-43
2020/12/22 12:48:37;;;;;;;5.82;0.50;;;21.20;55.40;;;;;;5030703;28;20037;-44
2020/12/22 12:51:06;;;;;;;4.63;0.63;;;21.20;54.80;;;;;;5031355;28;20134;-44
2020/12/22 12:53:33;;;;;;;4.25;0.77;;;21.20;54.80;;;;;;5030264;28;20502;-42